Time;durP1;ratioP1;P1;durP2;ratioP2;P2;SDS_P1;SDS_P2;PMS_P1;PMS_P2;Temp;Humidity;BMP_temperature;BMP_pressure;BME280_temperature;BME280_humidity;BME280_pressure;Samples;Min_cycle;Max_cycle;Signal;HPM_P1;HPM_P2
2024/02/22 06:02:47;;;;;;;;;;;;;;;;;;4972039;28;19970;-50
2024/02/22 06:05:13;;;;;;;;;;;;;;;;;;4974280;28;19961;-52
2024/02/22 06:07:39;;;;;;;;;;;;;;;;;;4973882;28;19910;-49
2024/02/22 06:10:05;;;;;;;;;;;;;;;;;;4973822;28;19914;-50
2024/02/22 06:12:31;;;;;;;;;;;;;;;;;;4973743;28;19918;-51
2024/02/22 06:14:56;;;;;;;;;;;;;;;;;;4973502;28;20364;-50
2024/02/22 06:17:22;;;;;;;;;;;;;;;;;;4973809;28;19910;-50
2024/02/22 06:19:48;;;;;;;;;;;;;;;;;;4973503;28;19949;-52
2024/02/22 06:22:14;;;;;;;;;;;;;;;;;;4973816;28;19910;-51
2024/02/22 06:24:40;;;;;;;;;;;;;;;;;;4973590;28;20005;-51
2024/02/22 06:27:06;;;;;;;;;;;;;;;;;;4973548;28;19917;-53
2024/02/22 06:29:32;;;;;;;;;;;;;;;;;;4973228;28;19981;-48
2024/02/22 06:31:58;;;;;;;;;;;;;;;;;;4973461;28;19910;-51
2024/02/22 06:34:24;;;;;;;;;;;;;;;;;;4972976;28;19914;-51
2024/02/22 06:36:49;;;;;;;;;;;;;;;;;;4973478;28;19965;-52
2024/02/22 06:39:15;;;;;;;;;;;;;;;;;;4973215;28;19917;-52
2024/02/22 06:41:41;;;;;;;;;;;;;;;;;;4973500;28;20021;-55
2024/02/22 06:44:07;;;;;;;;;;;;;;;;;;4972937;28;19973;-54
2024/02/22 06:46:33;;;;;;;;;;;;;;;;;;4973239;28;19910;-53
2024/02/22 06:48:59;;;;;;;;;;;;;;;;;;4972023;28;19910;-53
2024/02/22 06:51:25;;;;;;;;;;;;;;;;;;4972738;28;19910;-52
2024/02/22 06:53:51;;;;;;;;;;;;;;;;;;4972792;28;20380;-52
2024/02/22 06:56:16;;;;;;;;;;;;;;;;;;4973192;28;19918;-52
2024/02/22 06:58:42;;;;;;;;;;;;;;;;;;4972920;28;19906;-51
2024/02/22 07:01:08;;;;;;;;;;;;;;;;;;4972653;28;19922;-54
2024/02/22 07:03:34;;;;;;;;;;;;;;;;;;4972739;28;20049;-53
2024/02/22 07:06:00;;;;;;;;;;;;;;;;;;4972627;28;19917;-51
2024/02/22 07:08:26;;;;;;;;;;;;;;;;;;4972705;28;19917;-51
2024/02/22 07:10:52;;;;;;;;;;;;;;;;;;4972907;28;19981;-52
2024/02/22 07:13:18;;;;;;;;;;;;;;;;;;4972601;28;19949;-53
2024/02/22 07:15:44;;;;;;;;;;;;;;;;;;4972817;28;19949;-53
2024/02/22 07:18:10;;;;;;;;;;;;;;;;;;4972494;28;20367;-54
2024/02/22 07:20:36;;;;;;;;;;;;;;;;;;4972916;28;19910;-54
2024/02/22 07:23:02;;;;;;;;;;;;;;;;;;4972436;28;20403;-53
2024/02/22 07:25:28;;;;;;;;;;;;;;;;;;4972275;28;19961;-51
2024/02/22 07:27:54;;;;;;;;;;;;;;;;;;4971493;28;19914;-53
2024/02/22 07:30:20;;;;;;;;;;;;;;;;;;4969089;28;20438;-50
2024/02/22 07:32:46;;;;;;;;;;;;;;;;;;4966399;28;19918;-50
2024/02/22 07:35:13;;;;;;;;;;;;;;;;;;4961875;28;19914;-49
2024/02/22 07:37:39;;;;;;;;;;;;;;;;;;4972948;28;19914;-53
2024/02/22 07:40:07;;;;;;;;;;;;;;;;;;4973009;28;19958;-54
2024/02/22 07:42:33;;;;;;;;;;;;;;;;;;4972996;28;19910;-49
2024/02/22 07:44:59;;;;;;;;;;;;;;;;;;4972189;28;19915;-53
2024/02/22 07:47:24;;;;;;;;;;;;;;;;;;4972906;28;19949;-50
2024/02/22 07:49:50;;;;;;;;;;;;;;;;;;4972655;28;20001;-51
2024/02/22 07:52:16;;;;;;;;;;;;;;;;;;4973326;28;19911;-54
2024/02/22 07:54:46;;;;;;;;;;;;;;;;;;4971933;28;19921;-52
2024/02/22 07:57:12;;;;;;;;;;;;;;;;;;4971086;28;19914;-52
2024/02/22 07:59:39;;;;;;;;;;;;;;;;;;4971914;28;20048;-55
2024/02/22 08:02:04;;;;;;;;;;;;;;;;;;4971761;28;19918;-51
2024/02/22 08:04:30;;;;;;;;;;;;;;;;;;4969616;28;19921;-53
2024/02/22 08:06:56;;;;;;;;;;;;;;;;;;4972834;28;19914;-55
2024/02/22 08:09:22;;;;;;;;;;;;;;;;;;4972678;28;19966;-55
2024/02/22 08:11:48;;;;;;;;;;;;;;;;;;4971499;28;19910;-55
2024/02/22 08:14:15;;;;;;;;;;;;;;;;;;4968042;28;19918;-53
2024/02/22 08:16:41;;;;;;;;;;;;;;;;;;4972761;28;20392;-54
2024/02/22 08:19:07;;;;;;;;;;;;;;;;;;4972603;28;19942;-53
2024/02/22 08:21:32;;;;;;;;;;;;;;;;;;4971938;28;19920;-52
2024/02/22 08:23:58;;;;;;;;;;;;;;;;;;4971191;28;19953;-51
2024/02/22 08:26:24;;;;;;;;;;;;;;;;;;4967632;28;19910;-52
2024/02/22 08:28:50;;;;;;;;;;;;;;;;;;4972608;28;19914;-54
2024/02/22 08:31:16;;;;;;;;;;;;;;;;;;4971316;28;19921;-54
2024/02/22 08:33:42;;;;;;;;;;;;;;;;;;4972342;28;19938;-50
2024/02/22 08:36:08;;;;;;;;;;;;;;;;;;4970613;28;19914;-50
2024/02/22 08:38:34;;;;;;;;;;;;;;;;;;4969983;28;19942;-53
2024/02/22 08:41:00;;;;;;;;;;;;;;;;;;4970117;28;19914;-49
2024/02/22 08:43:26;;;;;;;;;;;;;;;;;;4972332;28;19964;-50
2024/02/22 08:45:52;;;;;;;;;;;;;;;;;;4972535;28;19910;-53
2024/02/22 08:48:18;;;;;;;;;;;;;;;;;;4971922;28;19910;-50
2024/02/22 08:50:44;;;;;;;;;;;;;;;;;;4971829;28;20364;-49
2024/02/22 08:53:10;;;;;;;;;;;;;;;;;;4968533;28;19918;-49
2024/02/22 08:55:36;;;;;;;;;;;;;;;;;;4972295;28;19910;-50
2024/02/22 08:58:02;;;;;;;;;;;;;;;;;;4972186;28;19911;-52
2024/02/22 09:00:28;;;;;;;;;;;;;;;;;;4970790;28;19918;-52
2024/02/22 09:02:54;;;;;;;;;;;;;;;;;;4972156;28;20364;-52
2024/02/22 09:05:20;;;;;;;;;;;;;;;;;;4972554;28;19910;-53
2024/02/22 09:07:46;;;;;;;;;;;;;;;;;;4972134;28;19906;-51
2024/02/22 09:10:12;;;;;;;;;;;;;;;;;;4971261;28;20348;-52
2024/02/22 09:12:40;;;;;;;;;;;;;;;;;;4969260;28;19918;-50
2024/02/22 09:15:06;;;;;;;;;;;;;;;;;;4975338;28;20368;-51
2024/02/22 09:17:32;;;;;;;;;;;;;;;;;;4974049;28;20629;-51
2024/02/22 09:19:58;;;;;;;;;;;;;;;;;;4974782;28;19929;-49
2024/02/22 09:22:24;;;;;;;;;;;;;;;;;;4975889;28;20410;-50
2024/02/22 09:24:49;;;;;;;;;;;;;;;;;;4974934;28;19915;-50
2024/02/22 09:27:15;;;;;;;;;;;;;;;;;;4975297;28;19910;-50
2024/02/22 09:29:41;;;;;;;;;;;;;;;;;;4974036;28;20001;-52
2024/02/22 09:32:07;;;;;;;;;;;;;;;;;;4965301;28;19922;-53
2024/02/22 09:34:33;;;;;;;;;;;;;;;;;;4967699;28;20351;-53
2024/02/22 09:36:59;;;;;;;;;;;;;;;;;;4963225;28;19922;-54
2024/02/22 09:39:25;;;;;;;;;;;;;;;;;;4971139;28;20399;-51
2024/02/22 09:41:50;;;;;;;;;;;;;;;;;;4974591;28;19997;-53
2024/02/22 09:44:16;;;;;;;;;;;;;;;;;;4974929;28;19917;-51
2024/02/22 09:46:44;;;;;;;;;;;;;;;;;;4968977;28;19917;-52
2024/02/22 09:49:10;;;;;;;;;;;;;;;;;;4973029;28;19914;-52
2024/02/22 09:51:36;;;;;;;;;;;;;;;;;;4974109;28;19910;-50
2024/02/22 09:54:02;;;;;;;;;;;;;;;;;;4973157;28;19918;-52
2024/02/22 09:56:28;;;;;;;;;;;;;;;;;;4973435;28;19918;-54
2024/02/22 09:58:54;;;;;;;;;;;;;;;;;;4974745;28;20006;-50
2024/02/22 10:01:19;;;;;;;;;;;;;;;;;;4973957;28;19925;-50
2024/02/22 10:03:45;;;;;;;;;;;;;;;;;;4974659;28;20450;-49
2024/02/22 10:06:11;;;;;;;;;;;;;;;;;;4974621;28;19914;-50
2024/02/22 10:08:37;;;;;;;;;;;;;;;;;;4974217;28;19914;-49
2024/02/22 10:11:03;;;;;;;;;;;;;;;;;;4974659;28;19910;-50
2024/02/22 10:13:29;;;;;;;;;;;;;;;;;;4973331;28;20012;-50
2024/02/22 10:15:55;;;;;;;;;;;;;;;;;;4974641;28;19910;-52
2024/02/22 10:18:21;;;;;;;;;;;;;;;;;;4971833;28;19922;-50
2024/02/22 10:20:48;;;;;;;;;;;;;;;;;;4973261;28;19988;-50
2024/02/22 10:23:13;;;;;;;;;;;;;;;;;;4974103;28;20340;-48
2024/02/22 10:25:39;;;;;;;;;;;;;;;;;;4974355;28;19917;-49
2024/02/22 10:28:05;;;;;;;;;;;;;;;;;;4972281;28;19914;-48
2024/02/22 10:30:32;;;;;;;;;;;;;;;;;;4974001;28;20392;-52
2024/02/22 10:32:59;;;;;;;;;;;;;;;;;;4973958;28;19940;-51
2024/02/22 10:35:25;;;;;;;;;;;;;;;;;;4973574;28;19914;-48
2024/02/22 10:37:51;;;;;;;;;;;;;;;;;;4973453;28;19992;-49
2024/02/22 10:40:18;;;;;;;;;;;;;;;;;;4972601;28;19949;-50
2024/02/22 10:42:43;;;;;;;;;;;;;;;;;;4973177;28;19938;-50
2024/02/22 10:45:10;;;;;;;;;;;;;;;;;;4973139;28;19918;-49
2024/02/22 10:47:38;;;;;;;;;;;;;;;;;;4971745;28;19922;-49
2024/02/22 10:50:04;;;;;;;;;;;;;;;;;;4973947;28;19937;-50
2024/02/22 10:52:30;;;;;;;;;;;;;;;;;;4973017;28;19926;-53
2024/02/22 10:54:56;;;;;;;;;;;;;;;;;;4971857;28;19984;-49
2024/02/22 10:57:22;;;;;;;;;;;;;;;;;;4972781;28;19918;-50
2024/02/22 10:59:48;;;;;;;;;;;;;;;;;;4971662;28;19918;-52
2024/02/22 11:02:14;;;;;;;;;;;;;;;;;;4983650;28;19965;-51
2024/02/22 11:04:40;;;;;;;;;;;;;;;;;;4973564;28;19910;-49
2024/02/22 11:07:06;;;;;;;;;;;;;;;;;;4971208;28;19910;-49
2024/02/22 11:09:32;;;;;;;;;;;;;;;;;;4972004;28;19914;-53
2024/02/22 11:11:58;;;;;;;;;;;;;;;;;;4979763;28;19913;-50
2024/02/22 11:14:23;;;;;;;;;;;;;;;;;;4992395;28;19967;-51
2024/02/22 11:16:50;;;;;;;;;;;;;;;;;;4992767;28;19921;-51
2024/02/22 11:19:17;;;;;;;;;;;;;;;;;;4980779;28;20292;-52
2024/02/22 11:21:43;;;;;;;;;;;;;;;;;;4973553;28;19917;-52
2024/02/22 11:24:09;;;;;;;;;;;;;;;;;;4973183;28;19910;-48
2024/02/22 11:26:34;;;;;;;;;;;;;;;;;;4973371;28;20364;-52
2024/02/22 11:29:00;;;;;;;;;;;;;;;;;;4972057;28;20518;-48
2024/02/22 11:31:27;;;;;;;;;;;;;;;;;;4973500;28;20431;-51
2024/02/22 11:33:53;;;;;;;;;;;;;;;;;;4968379;28;19919;-50
2024/02/22 11:36:19;;;;;;;;;;;;;;;;;;4972677;28;20278;-52
2024/02/22 11:38:45;;;;;;;;;;;;;;;;;;4971761;28;19914;-51
2024/02/22 11:41:12;;;;;;;;;;;;;;;;;;4970531;28;19918;-51
2024/02/22 11:43:38;;;;;;;;;;;;;;;;;;4960692;28;19918;-52
2024/02/22 11:46:06;;;;;;;;;;;;;;;;;;4971385;28;19914;-50
2024/02/22 11:48:32;;;;;;;;;;;;;;;;;;4971467;28;20380;-52
2024/02/22 11:50:58;;;;;;;;;;;;;;;;;;4970839;28;20001;-51
2024/02/22 11:53:23;;;;;;;;;;;;;;;;;;4971685;28;19988;-48
2024/02/22 11:55:49;;;;;;;;;;;;;;;;;;4969827;28;19918;-48
2024/02/22 11:58:16;;;;;;;;;;;;;;;;;;4970825;28;20396;-49
2024/02/22 12:00:43;;;;;;;;;;;;;;;;;;4972664;28;19922;-49
2024/02/22 12:03:09;;;;;;;;;;;;;;;;;;4970420;28;20403;-48
2024/02/22 12:05:35;;;;;;;;;;;;;;;;;;4970612;28;19945;-48
2024/02/22 12:08:01;;;;;;;;;;;;;;;;;;4971647;28;19914;-49
2024/02/22 12:10:27;;;;;;;;;;;;;;;;;;4970080;28;19914;-50
2024/02/22 12:12:53;;;;;;;;;;;;;;;;;;4971107;28;19945;-51
2024/02/22 12:15:21;;;;;;;;;;;;;;;;;;4971121;28;20009;-51
2024/02/22 12:17:47;;;;;;;;;;;;;;;;;;4969193;28;20005;-50
2024/02/22 12:20:15;;;;;;;;;;;;;;;;;;4971790;28;20053;-48
2024/02/22 12:22:41;;;;;;;;;;;;;;;;;;4971842;28;19914;-47
2024/02/22 12:25:07;;;;;;;;;;;;;;;;;;4971437;28;19920;-50
2024/02/22 12:27:33;;;;;;;;;;;;;;;;;;4971573;28;19921;-50
2024/02/22 12:30:00;;;;;;;;;;;;;;;;;;4970510;28;19944;-47
2024/02/22 12:32:27;;;;;;;;;;;;;;;;;;4968415;28;19914;-52
2024/02/22 12:34:53;;;;;;;;;;;;;;;;;;4965799;28;19918;-50
2024/02/22 12:37:19;;;;;;;;;;;;;;;;;;4970614;28;20018;-46
2024/02/22 12:39:45;;;;;;;;;;;;;;;;;;4971103;28;19914;-47
2024/02/22 12:42:11;;;;;;;;;;;;;;;;;;4947456;28;19915;-50
2024/02/22 12:44:37;;;;;;;;;;;;;;;;;;4972116;28;20451;-48
2024/02/22 12:47:05;;;;;;;;;;;;;;;;;;4971636;28;19917;-49
2024/02/22 12:49:32;;;;;;;;;;;;;;;;;;4973587;28;19950;-48
2024/02/22 12:51:58;;;;;;;;;;;;;;;;;;4975843;28;19916;-48
2024/02/22 12:54:24;;;;;;;;;;;;;;;;;;4974012;28;19933;-49
2024/02/22 12:56:51;;;;;;;;;;;;;;;;;;4974500;28;19914;-51
2024/02/22 12:59:17;;;;;;;;;;;;;;;;;;4974845;28;19914;-47
2024/02/22 13:01:44;;;;;;;;;;;;;;;;;;4974444;28;19975;-47
2024/02/22 13:04:10;;;;;;;;;;;;;;;;;;4974320;28;19914;-47
2024/02/22 13:06:37;;;;;;;;;;;;;;;;;;4975539;28;19911;-48
2024/02/22 13:09:03;;;;;;;;;;;;;;;;;;4972101;28;19921;-48
2024/02/22 13:11:29;;;;;;;;;;;;;;;;;;4972686;28;19915;-51
2024/02/22 13:13:55;;;;;;;;;;;;;;;;;;4973210;28;20280;-46
2024/02/22 13:16:27;;;;;;;;;;;;;;;;;;4970973;28;19910;-48
2024/02/22 13:18:52;;;;;;;;;;;;;;;;;;4974188;28;19997;-48
2024/02/22 13:21:18;;;;;;;;;;;;;;;;;;4973382;28;20014;-47
2024/02/22 13:23:44;;;;;;;;;;;;;;;;;;4974668;28;19910;-49
2024/02/22 13:26:10;;;;;;;;;;;;;;;;;;4974522;28;19914;-47
2024/02/22 13:28:36;;;;;;;;;;;;;;;;;;4974575;28;20287;-49
2024/02/22 13:31:02;;;;;;;;;;;;;;;;;;4957637;28;19961;-52
2024/02/22 13:33:28;;;;;;;;;;;;;;;;;;4974214;28;20410;-48
2024/02/22 13:35:54;;;;;;;;;;;;;;;;;;4974324;28;19921;-49
2024/02/22 13:38:20;;;;;;;;;;;;;;;;;;4974406;28;19910;-49
2024/02/22 13:40:46;;;;;;;;;;;;;;;;;;4974242;28;19917;-50
2024/02/22 13:43:11;;;;;;;;;;;;;;;;;;4974207;28;19918;-49
2024/02/22 13:45:37;;;;;;;;;;;;;;;;;;4974436;28;19921;-48
2024/02/22 13:48:03;;;;;;;;;;;;;;;;;;4974452;28;19926;-48
2024/02/22 13:50:30;;;;;;;;;;;;;;;;;;4973917;28;19910;-50
2024/02/22 13:52:56;;;;;;;;;;;;;;;;;;4974353;28;19921;-49
2024/02/22 13:55:22;;;;;;;;;;;;;;;;;;4974002;28;20292;-46
2024/02/22 13:57:48;;;;;;;;;;;;;;;;;;4974106;28;19910;-49
2024/02/22 14:00:14;;;;;;;;;;;;;;;;;;4973489;28;19917;-49
2024/02/22 14:02:40;;;;;;;;;;;;;;;;;;4973965;28;20033;-50
2024/02/22 14:05:06;;;;;;;;;;;;;;;;;;4974156;28;20012;-47
2024/02/22 14:07:32;;;;;;;;;;;;;;;;;;4973788;28;20299;-50
2024/02/22 14:10:00;;;;;;;;;;;;;;;;;;4971998;28;19918;-46
2024/02/22 14:12:26;;;;;;;;;;;;;;;;;;4973892;28;19915;-46
2024/02/22 14:14:52;;;;;;;;;;;;;;;;;;4973888;28;19972;-49
2024/02/22 14:17:20;;;;;;;;;;;;;;;;;;4974342;28;20335;-49
2024/02/22 14:19:46;;;;;;;;;;;;;;;;;;4974623;28;19910;-47
2024/02/22 14:22:11;;;;;;;;;;;;;;;;;;4974544;28;19957;-47
2024/02/22 14:24:37;;;;;;;;;;;;;;;;;;4973921;28;19918;-49
2024/02/22 14:27:03;;;;;;;;;;;;;;;;;;4973843;28;19914;-50
2024/02/22 14:29:29;;;;;;;;;;;;;;;;;;4973133;28;19919;-47
2024/02/22 14:31:55;;;;;;;;;;;;;;;;;;4972759;28;20049;-47
2024/02/22 14:34:21;;;;;;;;;;;;;;;;;;4973976;28;19921;-49
2024/02/22 14:36:47;;;;;;;;;;;;;;;;;;4973202;28;19914;-48
2024/02/22 14:39:13;;;;;;;;;;;;;;;;;;4973182;28;19917;-50
2024/02/22 14:41:39;;;;;;;;;;;;;;;;;;4973299;28;19950;-46
2024/02/22 14:44:05;;;;;;;;;;;;;;;;;;4973619;28;20508;-50
2024/02/22 14:46:31;;;;;;;;;;;;;;;;;;4972914;28;19914;-50
2024/02/22 14:48:57;;;;;;;;;;;;;;;;;;4973430;28;20304;-49
2024/02/22 14:51:23;;;;;;;;;;;;;;;;;;4972989;28;19920;-47
2024/02/22 14:53:49;;;;;;;;;;;;;;;;;;4971967;28;19981;-49
2024/02/22 14:56:15;;;;;;;;;;;;;;;;;;4973711;28;19920;-46
2024/02/22 14:58:42;;;;;;;;;;;;;;;;;;4972959;28;19949;-49
2024/02/22 15:01:08;;;;;;;;;;;;;;;;;;4971133;28;19918;-46
2024/02/22 15:03:34;;;;;;;;;;;;;;;;;;4969801;28;20338;-49
2024/02/22 15:06:00;;;;;;;;;;;;;;;;;;4971297;28;19969;-48
2024/02/22 15:08:27;;;;;;;;;;;;;;;;;;4971724;28;19987;-46
2024/02/22 15:10:52;;;;;;;;;;;;;;;;;;4971494;28;19954;-47
2024/02/22 15:13:18;;;;;;;;;;;;;;;;;;4973155;28;20382;-46
2024/02/22 15:15:44;;;;;;;;;;;;;;;;;;4970694;28;19972;-46
2024/02/22 15:18:10;;;;;;;;;;;;;;;;;;4971544;28;20395;-45
2024/02/22 15:20:36;;;;;;;;;;;;;;;;;;4972419;28;19917;-45
2024/02/22 15:23:02;;;;;;;;;;;;;;;;;;4972628;28;20366;-46
2024/02/22 15:25:28;;;;;;;;;;;;;;;;;;4972101;28;19964;-46
2024/02/22 15:27:54;;;;;;;;;;;;;;;;;;4971442;28;19914;-47
2024/02/22 15:30:20;;;;;;;;;;;;;;;;;;4972821;28;19910;-45
2024/02/22 15:32:46;;;;;;;;;;;;;;;;;;4973394;28;20057;-45
2024/02/22 15:35:12;;;;;;;;;;;;;;;;;;4973579;28;19933;-45
2024/02/22 15:37:37;;;;;;;;;;;;;;;;;;4973259;28;19913;-47
2024/02/22 15:40:06;;;;;;;;;;;;;;;;;;4972952;28;19914;-46
2024/02/22 15:42:33;;;;;;;;;;;;;;;;;;4973068;28;19917;-45
2024/02/22 15:44:59;;;;;;;;;;;;;;;;;;4972942;28;19932;-47
2024/02/22 15:47:25;;;;;;;;;;;;;;;;;;4972862;28;20000;-46
2024/02/22 15:49:51;;;;;;;;;;;;;;;;;;4973058;28;19910;-49
2024/02/22 15:52:17;;;;;;;;;;;;;;;;;;4971933;28;20008;-46
2024/02/22 15:54:43;;;;;;;;;;;;;;;;;;4970447;28;19918;-46
2024/02/22 15:57:11;;;;;;;;;;;;;;;;;;4970414;28;19910;-50
2024/02/22 15:59:37;;;;;;;;;;;;;;;;;;4971679;28;19922;-49
2024/02/22 16:02:03;;;;;;;;;;;;;;;;;;4972753;28;19918;-47
2024/02/22 16:04:29;;;;;;;;;;;;;;;;;;4966821;28;20384;-47
2024/02/22 16:06:55;;;;;;;;;;;;;;;;;;4974723;28;19911;-49
2024/02/22 16:09:22;;;;;;;;;;;;;;;;;;4972432;28;19910;-46
2024/02/22 16:11:48;;;;;;;;;;;;;;;;;;4972388;28;20062;-48
2024/02/22 16:14:14;;;;;;;;;;;;;;;;;;4970850;28;20020;-48
2024/02/22 16:16:40;;;;;;;;;;;;;;;;;;4968662;28;19996;-45
2024/02/22 16:19:06;;;;;;;;;;;;;;;;;;4972530;28;19947;-49
2024/02/22 16:21:32;;;;;;;;;;;;;;;;;;4972914;28;19910;-46
2024/02/22 16:23:58;;;;;;;;;;;;;;;;;;4975622;28;20452;-48
2024/02/22 16:26:24;;;;;;;;;;;;;;;;;;4975065;28;19997;-49
2024/02/22 16:28:50;;;;;;;;;;;;;;;;;;4974773;28;19944;-47
2024/02/22 16:31:16;;;;;;;;;;;;;;;;;;4977253;28;19915;-45
2024/02/22 16:33:42;;;;;;;;;;;;;;;;;;4980930;28;19921;-47
2024/02/22 16:36:08;;;;;;;;;;;;;;;;;;4973857;28;19977;-45
2024/02/22 16:38:34;;;;;;;;;;;;;;;;;;4987206;28;19941;-49
2024/02/22 16:41:01;;;;;;;;;;;;;;;;;;4977843;28;19921;-45
2024/02/22 16:43:30;;;;;;;;;;;;;;;;;;4981171;28;19913;-44
2024/02/22 16:45:56;;;;;;;;;;;;;;;;;;4987381;28;19946;-45
2024/02/22 16:48:22;;;;;;;;;;;;;;;;;;4986546;28;19910;-48
2024/02/22 16:50:48;;;;;;;;;;;;;;;;;;4982091;28;19946;-47
2024/02/22 16:53:14;;;;;;;;;;;;;;;;;;4975916;28;19914;-46
2024/02/22 16:55:40;;;;;;;;;;;;;;;;;;4978054;28;19921;-48
2024/02/22 16:58:06;;;;;;;;;;;;;;;;;;4974540;28;19918;-47
2024/02/22 17:00:32;;;;;;;;;;;;;;;;;;4979294;28;19980;-44
2024/02/22 17:02:58;;;;;;;;;;;;;;;;;;4976266;28;19925;-47
2024/02/22 17:05:25;;;;;;;;;;;;;;;;;;4982294;28;19917;-49
2024/02/22 17:07:51;;;;;;;;;;;;;;;;;;4975689;28;19910;-45
2024/02/22 17:10:20;;;;;;;;;;;;;;;;;;4980687;28;20423;-47
2024/02/22 17:12:46;;;;;;;;;;;;;;;;;;4955748;28;19918;-48
2024/02/22 17:15:12;;;;;;;;;;;;;;;;;;4972119;28;19918;-46
2024/02/22 17:17:39;;;;;;;;;;;;;;;;;;4971643;28;20009;-45
2024/02/22 17:20:05;;;;;;;;;;;;;;;;;;4973738;28;20388;-45
2024/02/22 17:22:31;;;;;;;;;;;;;;;;;;4972568;28;19948;-46
2024/02/22 17:24:57;;;;;;;;;;;;;;;;;;4974614;28;19925;-44
2024/02/22 17:27:23;;;;;;;;;;;;;;;;;;4974425;28;19999;-45
2024/02/22 17:29:49;;;;;;;;;;;;;;;;;;4973629;28;19917;-47
2024/02/22 17:32:15;;;;;;;;;;;;;;;;;;4973964;28;19910;-46
2024/02/22 17:34:41;;;;;;;;;;;;;;;;;;4973106;28;19925;-45
2024/02/22 17:37:08;;;;;;;;;;;;;;;;;;4974773;28;19921;-46
2024/02/22 17:39:34;;;;;;;;;;;;;;;;;;4972744;28;19918;-44
2024/02/22 17:42:00;;;;;;;;;;;;;;;;;;4974570;28;19914;-46
2024/02/22 17:44:26;;;;;;;;;;;;;;;;;;4973202;28;19935;-48
2024/02/22 17:46:52;;;;;;;;;;;;;;;;;;4974503;28;19914;-47
2024/02/22 17:49:19;;;;;;;;;;;;;;;;;;4971021;28;19914;-45
2024/02/22 17:51:45;;;;;;;;;;;;;;;;;;4971851;28;20312;-47
2024/02/22 17:54:12;;;;;;;;;;;;;;;;;;4973283;28;20005;-47
2024/02/22 17:56:38;;;;;;;;;;;;;;;;;;4970423;28;19924;-45
2024/02/22 17:59:03;;;;;;;;;;;;;;;;;;4973052;28;19915;-46
2024/02/22 18:01:29;;;;;;;;;;;;;;;;;;4972904;28;19933;-47
2024/02/22 18:03:55;;;;;;;;;;;;;;;;;;4971253;28;19972;-46
2024/02/22 18:06:21;;;;;;;;;;;;;;;;;;4973352;28;19910;-47
2024/02/22 18:08:47;;;;;;;;;;;;;;;;;;4974311;28;19918;-50
2024/02/22 18:11:13;;;;;;;;;;;;;;;;;;4971911;28;19914;-47
2024/02/22 18:13:40;;;;;;;;;;;;;;;;;;4958266;28;19918;-50
2024/02/22 18:16:05;;;;;;;;;;;;;;;;;;4972654;28;19914;-48
2024/02/22 18:18:36;;;;;;;;;;;;;;;;;;4968146;28;20215;-49
2024/02/22 18:21:02;;;;;;;;;;;;;;;;;;4972344;28;20395;-47
2024/02/22 18:23:28;;;;;;;;;;;;;;;;;;4955420;28;20024;-50
2024/02/22 18:25:54;;;;;;;;;;;;;;;;;;4972139;28;19957;-48
2024/02/22 18:28:20;;;;;;;;;;;;;;;;;;4971902;28;20296;-47
2024/02/22 18:30:47;;;;;;;;;;;;;;;;;;4973120;28;19918;-47
2024/02/22 18:33:14;;;;;;;;;;;;;;;;;;4971080;28;20009;-49
2024/02/22 18:35:40;;;;;;;;;;;;;;;;;;4952243;28;19925;-50
2024/02/22 18:38:05;;;;;;;;;;;;;;;;;;4974145;28;19914;-49
2024/02/22 18:40:32;;;;;;;;;;;;;;;;;;4980831;28;19914;-47
2024/02/22 18:42:58;;;;;;;;;;;;;;;;;;4973363;28;19953;-46
2024/02/22 18:45:25;;;;;;;;;;;;;;;;;;4974623;28;20036;-47
2024/02/22 18:47:52;;;;;;;;;;;;;;;;;;4968954;28;20399;-49
2024/02/22 18:50:19;;;;;;;;;;;;;;;;;;4972702;28;19914;-48
2024/02/22 18:52:45;;;;;;;;;;;;;;;;;;4973676;28;20061;-47
2024/02/22 18:55:11;;;;;;;;;;;;;;;;;;4973070;28;19949;-47
2024/02/22 18:57:38;;;;;;;;;;;;;;;;;;4973472;28;19941;-46
2024/02/22 19:00:04;;;;;;;;;;;;;;;;;;4973444;28;19914;-47
2024/02/22 19:02:29;;;;;;;;;;;;;;;;;;4954705;28;19922;-48
2024/02/22 19:04:56;;;;;;;;;;;;;;;;;;4972992;28;19930;-47
2024/02/22 19:07:22;;;;;;;;;;;;;;;;;;4966662;28;20506;-46
2024/02/22 19:09:48;;;;;;;;;;;;;;;;;;4967545;28;19960;-47
2024/02/22 19:12:14;;;;;;;;;;;;;;;;;;4948515;28;19915;-46
2024/02/22 19:14:40;;;;;;;;;;;;;;;;;;4968679;28;19929;-47
2024/02/22 19:17:07;;;;;;;;;;;;;;;;;;4965679;28;19923;-45
2024/02/22 19:19:33;;;;;;;;;;;;;;;;;;4960948;28;19922;-47
2024/02/22 19:21:59;;;;;;;;;;;;;;;;;;4970655;28;19914;-49
2024/02/22 19:24:27;;;;;;;;;;;;;;;;;;4949762;28;19984;-45
2024/02/22 19:26:57;;;;;;;;;;;;;;;;;;4966635;28;19914;-47
2024/02/22 19:29:23;;;;;;;;;;;;;;;;;;4967094;28;19914;-49
2024/02/22 19:31:49;;;;;;;;;;;;;;;;;;4967345;28;20384;-46
2024/02/22 19:34:15;;;;;;;;;;;;;;;;;;4966654;28;19925;-47
2024/02/22 19:36:41;;;;;;;;;;;;;;;;;;4967311;28;19989;-46
2024/02/22 19:39:09;;;;;;;;;;;;;;;;;;4969187;28;20351;-47
2024/02/22 19:41:35;;;;;;;;;;;;;;;;;;4971039;28;19919;-46
2024/02/22 19:44:02;;;;;;;;;;;;;;;;;;4969917;28;19914;-45
2024/02/22 19:46:28;;;;;;;;;;;;;;;;;;4969408;28;19914;-47
2024/02/22 19:48:54;;;;;;;;;;;;;;;;;;4971287;28;19914;-45
2024/02/22 19:51:20;;;;;;;;;;;;;;;;;;4969845;28;19918;-48
2024/02/22 19:53:47;;;;;;;;;;;;;;;;;;4969686;28;19923;-49
2024/02/22 19:56:13;;;;;;;;;;;;;;;;;;4970087;28;19951;-47
2024/02/22 19:58:39;;;;;;;;;;;;;;;;;;4970389;28;20401;-47
2024/02/22 20:01:04;;;;;;;;;;;;;;;;;;4967937;28;19996;-46
2024/02/22 20:03:30;;;;;;;;;;;;;;;;;;4969439;28;20404;-50
2024/02/22 20:05:56;;;;;;;;;;;;;;;;;;4969264;28;19918;-47
2024/02/22 20:08:22;;;;;;;;;;;;;;;;;;4969266;28;20009;-47
2024/02/22 20:10:51;;;;;;;;;;;;;;;;;;4969025;28;19921;-49
2024/02/22 20:13:18;;;;;;;;;;;;;;;;;;4965136;28;19926;-46
2024/02/22 20:15:44;;;;;;;;;;;;;;;;;;4961248;28;19914;-46
2024/02/22 20:18:10;;;;;;;;;;;;;;;;;;4969472;28;20390;-47
2024/02/22 20:20:36;;;;;;;;;;;;;;;;;;4971174;28;20177;-49
2024/02/22 20:23:02;;;;;;;;;;;;;;;;;;4970563;28;20320;-50
2024/02/22 20:25:28;;;;;;;;;;;;;;;;;;4966627;28;19962;-47
2024/02/22 20:27:54;;;;;;;;;;;;;;;;;;4967266;28;19914;-48
2024/02/22 20:30:20;;;;;;;;;;;;;;;;;;4951381;28;19914;-47
2024/02/22 20:32:45;;;;;;;;;;;;;;;;;;4951412;28;19937;-49
2024/02/22 20:35:11;;;;;;;;;;;;;;;;;;4966175;28;19918;-48
2024/02/22 20:37:37;;;;;;;;;;;;;;;;;;4969391;28;19918;-47
2024/02/22 20:40:03;;;;;;;;;;;;;;;;;;4969182;28;20013;-49
2024/02/22 20:42:29;;;;;;;;;;;;;;;;;;4969962;28;20004;-48
2024/02/22 20:44:56;;;;;;;;;;;;;;;;;;4966678;28;19914;-49
2024/02/22 20:47:22;;;;;;;;;;;;;;;;;;4951869;28;20021;-49
2024/02/22 20:49:49;;;;;;;;;;;;;;;;;;4968108;28;20013;-47
2024/02/22 20:52:15;;;;;;;;;;;;;;;;;;4967581;28;19925;-46
2024/02/22 20:54:41;;;;;;;;;;;;;;;;;;4968290;28;20343;-47
2024/02/22 20:57:07;;;;;;;;;;;;;;;;;;4969421;28;20009;-48
2024/02/22 20:59:33;;;;;;;;;;;;;;;;;;4971850;28;20370;-46
2024/02/22 21:02:02;;;;;;;;;;;;;;;;;;4965835;28;20005;-47
2024/02/22 21:04:31;;;;;;;;;;;;;;;;;;4966539;28;19914;-47
2024/02/22 21:06:57;;;;;;;;;;;;;;;;;;4972003;28;19924;-47
2024/02/22 21:09:23;;;;;;;;;;;;;;;;;;4954560;28;19954;-48
2024/02/22 21:11:52;;;;;;;;;;;;;;;;;;4953714;28;19914;-45
2024/02/22 21:14:18;;;;;;;;;;;;;;;;;;4973771;28;20384;-47
2024/02/22 21:16:45;;;;;;;;;;;;;;;;;;4972677;28;20042;-47
2024/02/22 21:19:11;;;;;;;;;;;;;;;;;;4955835;28;19914;-48
2024/02/22 21:21:37;;;;;;;;;;;;;;;;;;4972598;28;19918;-47
2024/02/22 21:24:03;;;;;;;;;;;;;;;;;;4970161;28;19917;-48
2024/02/22 21:26:29;;;;;;;;;;;;;;;;;;4951273;28;19924;-50
2024/02/22 21:28:55;;;;;;;;;;;;;;;;;;4971931;28;19945;-46
2024/02/22 21:31:22;;;;;;;;;;;;;;;;;;4973284;28;19941;-49
2024/02/22 21:33:48;;;;;;;;;;;;;;;;;;4966654;28;19990;-47
2024/02/22 21:36:15;;;;;;;;;;;;;;;;;;4971651;28;20422;-47
2024/02/22 21:38:41;;;;;;;;;;;;;;;;;;4972498;28;19945;-49
2024/02/22 21:41:09;;;;;;;;;;;;;;;;;;4972812;28;19957;-47
2024/02/22 21:43:35;;;;;;;;;;;;;;;;;;4971389;28;20316;-45
2024/02/22 21:46:01;;;;;;;;;;;;;;;;;;4969773;28;19914;-50
2024/02/22 21:48:30;;;;;;;;;;;;;;;;;;4969152;28;19922;-47
2024/02/22 21:50:56;;;;;;;;;;;;;;;;;;4973057;28;19914;-48
2024/02/22 21:53:22;;;;;;;;;;;;;;;;;;4971619;28;19918;-47
2024/02/22 21:55:48;;;;;;;;;;;;;;;;;;4966602;28;19918;-46
2024/02/22 21:58:14;;;;;;;;;;;;;;;;;;4969933;28;19984;-47
2024/02/22 22:00:40;;;;;;;;;;;;;;;;;;4971591;28;19921;-49
2024/02/22 22:03:06;;;;;;;;;;;;;;;;;;4969669;28;20296;-48
2024/02/22 22:05:32;;;;;;;;;;;;;;;;;;4948891;28;19914;-46
2024/02/22 22:07:58;;;;;;;;;;;;;;;;;;4970119;28;19914;-47
2024/02/22 22:10:24;;;;;;;;;;;;;;;;;;4960791;28;19914;-46
2024/02/22 22:12:50;;;;;;;;;;;;;;;;;;4971639;28;19988;-48
2024/02/22 22:15:16;;;;;;;;;;;;;;;;;;4970804;28;19954;-46
2024/02/22 22:17:42;;;;;;;;;;;;;;;;;;4968845;28;19926;-50
2024/02/22 22:20:08;;;;;;;;;;;;;;;;;;4969873;28;19921;-47
2024/02/22 22:22:34;;;;;;;;;;;;;;;;;;4970393;28;20000;-45
2024/02/22 22:25:00;;;;;;;;;;;;;;;;;;4969648;28;19918;-47
2024/02/22 22:27:26;;;;;;;;;;;;;;;;;;4946620;28;19914;-45
2024/02/22 22:29:52;;;;;;;;;;;;;;;;;;4970128;28;20399;-46
2024/02/22 22:32:20;;;;;;;;;;;;;;;;;;4970584;28;19981;-45
2024/02/22 22:34:46;;;;;;;;;;;;;;;;;;4969798;28;20270;-45
2024/02/22 22:37:13;;;;;;;;;;;;;;;;;;4969703;28;19929;-46
2024/02/22 22:39:39;;;;;;;;;;;;;;;;;;4970545;28;19914;-47